Time;durP1;ratioP1;P1;durP2;ratioP2;P2;SDS_P1;SDS_P2;PMS_P1;PMS_P2;Temp;Humidity;BMP_temperature;BMP_pressure;BME280_temperature;BME280_humidity;BME280_pressure;Samples;Min_cycle;Max_cycle;Signal;HPM_P1;HPM_P2
2022/12/31 00:01:55;;;;;;;11.80;2.30;;;13.50;90.30;;;;;;9181593;19;20014;-63
2022/12/31 00:04:59;;;;;;;;;;;13.50;90.30;;;;;;9181520;19;20574;-65
2022/12/31 00:08:03;;;;;;;8.52;2.35;;;13.50;90.30;;;;;;9182129;19;19938;-63
2022/12/31 00:11:07;;;;;;;5.50;1.95;;;13.50;90.30;;;;;;9181672;19;20474;-65
2022/12/31 00:14:13;;;;;;;8.20;2.78;;;13.50;90.30;;;;;;9182094;19;20511;-65
2022/12/31 00:17:16;;;;;;;5.78;3.10;;;13.50;90.30;;;;;;9181224;19;20055;-66
2022/12/31 00:20:20;;;;;;;6.07;2.40;;;13.50;90.30;;;;;;9182038;19;20023;-65
2022/12/31 00:23:24;;;;;;;5.43;2.45;;;13.50;90.30;;;;;;9178764;19;20022;-63
2022/12/31 00:26:30;;;;;;;5.07;2.50;;;13.50;90.30;;;;;;9177840;19;20483;-63
2022/12/31 00:29:36;;;;;;;3.47;2.38;;;13.50;90.40;;;;;;9181646;19;20078;-65
2022/12/31 00:32:39;;;;;;;4.72;2.80;;;13.50;90.40;;;;;;9181316;19;20045;-66
2022/12/31 00:35:43;;;;;;;4.65;2.63;;;13.50;90.40;;;;;;9181831;19;20070;-64
2022/12/31 00:38:49;;;;;;;5.90;3.00;;;13.50;90.40;;;;;;9181020;19;20042;-64
2022/12/31 00:41:52;;;;;;;5.70;2.60;;;13.50;90.40;;;;;;9181716;19;20030;-66
2022/12/31 00:44:58;;;;;;;6.10;2.50;;;13.50;90.40;;;;;;9179210;19;20608;-66
2022/12/31 00:48:02;;;;;;;3.83;2.42;;;13.50;90.40;;;;;;9179050;19;20018;-64
2022/12/31 00:51:07;;;;;;;3.60;2.10;;;13.50;90.70;;;;;;9176097;19;20447;-65
2022/12/31 00:54:11;;;;;;;4.88;2.35;;;13.50;90.50;;;;;;9181305;19;20046;-64
2022/12/31 00:57:15;;;;;;;6.80;2.40;;;13.50;90.50;;;;;;9178032;19;20014;-65
2022/12/31 01:00:21;;;;;;;4.82;2.45;;;13.50;90.50;;;;;;9181000;19;20026;-66
2022/12/31 01:03:25;;;;;;;5.07;2.53;;;13.50;90.50;;;;;;9174734;19;20023;-65
2022/12/31 01:06:29;;;;;;;5.45;2.05;;;13.50;90.50;;;;;;9180173;19;20007;-66
2022/12/31 01:09:33;;;;;;;4.13;2.25;;;13.50;90.50;;;;;;9178059;19;20022;-66
2022/12/31 01:12:36;;;;;;;2.88;1.77;;;13.50;90.50;;;;;;9180447;19;20041;-65
2022/12/31 01:15:42;;;;;;;4.32;1.70;;;13.50;90.50;;;;;;9181106;19;20018;-68
2022/12/31 01:18:46;;;;;;;1.75;1.25;;;13.50;90.50;;;;;;9180266;19;20482;-66
2022/12/31 01:21:51;;;;;;;3.13;0.80;;;13.50;90.50;;;;;;9181035;19;20018;-65
2022/12/31 01:24:55;;;;;;;1.58;1.00;;;13.50;90.50;;;;;;9177362;19;20035;-64
2022/12/31 01:27:59;;;;;;;1.67;1.00;;;13.50;90.60;;;;;;9180413;19;20050;-65
2022/12/31 01:31:07;;;;;;;1.13;0.75;;;13.50;90.60;;;;;;9178617;19;20018;-65
2022/12/31 01:34:11;;;;;;;2.33;1.10;;;13.50;90.60;;;;;;9179860;19;20352;-65
2022/12/31 01:37:15;;;;;;;0.75;0.63;;;13.50;90.90;;;;;;9175849;19;20018;-64
2022/12/31 01:40:19;;;;;;;5.72;0.90;;;13.50;90.60;;;;;;9179583;19;20023;-65
2022/12/31 01:43:22;;;;;;;;;;;13.50;90.60;;;;;;9178773;19;20014;-65
2022/12/31 01:46:34;;;;;;;0.95;0.75;;;13.50;90.60;;;;;;9179447;19;19926;-64
2022/12/31 01:49:42;;;;;;;0.68;0.68;;;13.50;90.50;;;;;;9171472;19;20135;-65
2022/12/31 01:52:49;;;;;;;2.20;0.80;;;13.50;90.60;;;;;;9179472;19;20019;-65
2022/12/31 01:55:56;;;;;;;1.08;0.98;;;13.50;90.60;;;;;;9179863;19;20059;-65
2022/12/31 01:59:00;;;;;;;1.80;1.20;;;13.50;90.60;;;;;;9178703;19;20018;-64
2022/12/31 02:02:07;;;;;;;4.20;1.48;;;13.40;90.60;;;;;;9178573;19;20445;-65
2022/12/31 02:05:18;;;;;;;1.50;1.20;;;13.40;90.60;;;;;;9176288;19;20022;-66
2022/12/31 02:08:22;;;;;;;1.50;1.38;;;13.40;90.60;;;;;;9176471;19;20022;-65
2022/12/31 02:11:29;;;;;;;1.90;1.23;;;13.40;90.60;;;;;;9178901;19;20035;-64
2022/12/31 02:14:35;;;;;;;1.98;0.95;;;13.40;90.60;;;;;;9177347;19;20349;-64
2022/12/31 02:17:47;;;;;;;1.23;1.00;;;13.40;90.70;;;;;;9179037;19;20043;-64
2022/12/31 02:21:10;;;;;;;2.83;1.30;;;13.40;90.70;;;;;;9175547;19;20523;-66
2022/12/31 02:24:37;;;;;;;1.20;1.10;;;13.40;90.70;;;;;;9175710;19;20014;-64
2022/12/31 02:27:59;;;;;;;2.22;1.00;;;13.40;90.70;;;;;;9177955;19;20018;-65
2022/12/31 02:31:10;;;;;;;2.97;1.20;;;13.40;90.70;;;;;;9177244;19;20490;-65
2022/12/31 02:34:20;;;;;;;1.35;0.95;;;13.40;90.70;;;;;;9178305;19;20485;-64
2022/12/31 02:37:27;;;;;;;2.28;1.30;;;13.40;90.70;;;;;;9178136;19;20137;-64
2022/12/31 02:40:34;;;;;;;1.17;1.08;;;13.40;90.70;;;;;;9178730;19;20014;-64
2022/12/31 02:43:46;;;;;;;1.23;1.10;;;13.40;90.70;;;;;;9176602;19;20018;-65
2022/12/31 02:47:04;;;;;;;0.90;0.70;;;13.40;90.80;;;;;;9177074;19;20042;-65
2022/12/31 02:50:21;;;;;;;2.78;1.00;;;13.30;90.70;;;;;;9170376;19;20033;-64
2022/12/31 02:53:42;;;;;;;0.82;0.80;;;13.30;90.80;;;;;;9176018;19;20022;-65
2022/12/31 02:56:54;;;;;;;0.98;0.80;;;13.30;90.80;;;;;;9177289;19;20021;-65
2022/12/31 03:03:21;;;;;;;0.85;0.80;;;13.30;90.80;;;;;;9173561;19;20014;-64
2022/12/31 03:06:25;;;;;;;1.02;0.73;;;13.30;90.80;;;;;;9177378;19;20014;-65
2022/12/31 03:09:28;;;;;;;;;;;13.30;90.80;;;;;;9177512;19;20039;-63
2022/12/31 03:12:50;;;;;;;3.22;1.10;;;13.30;90.80;;;;;;9176840;19;19983;-67
2022/12/31 03:15:54;;;;;;;1.08;0.90;;;13.20;90.70;;;;;;9176671;19;20029;-64
2022/12/31 03:22:28;;;;;;;0.77;0.70;;;13.20;90.80;;;;;;9175678;19;20045;-65
2022/12/31 03:25:36;;;;;;;2.58;0.77;;;13.20;90.80;;;;;;9176556;19;20018;-69
2022/12/31 03:28:41;;;;;;;2.47;0.85;;;13.20;90.80;;;;;;9173455;19;20625;-71
2022/12/31 03:31:45;;;;;;;2.20;1.08;;;13.20;90.80;;;;;;9175258;19;20022;-70
2022/12/31 03:34:52;;;;;;;2.67;0.85;;;13.10;90.80;;;;;;9176961;19;20482;-70
2022/12/31 03:37:57;;;;;;;1.17;0.90;;;13.10;90.80;;;;;;9176778;19;20494;-68
2022/12/31 03:41:01;;;;;;;2.92;1.00;;;13.10;91.10;;;;;;9175913;19;20292;-69
2022/12/31 03:44:04;;;;;;;1.63;1.13;;;13.10;90.80;;;;;;9172811;19;20491;-70
2022/12/31 03:47:08;;;;;;;1.88;1.05;;;13.10;90.80;;;;;;9175009;19;20038;-70
2022/12/31 03:50:16;;;;;;;2.75;0.93;;;13.00;90.70;;;;;;9169371;19;20051;-69
2022/12/31 03:53:20;;;;;;;1.58;1.13;;;13.00;90.70;;;;;;9174430;19;20378;-70
2022/12/31 03:56:23;;;;;;;1.00;0.95;;;13.00;90.70;;;;;;9172992;19;20018;-69
2022/12/31 03:59:27;;;;;;;;;;;13.00;90.70;;;;;;9175016;19;20026;-69
2022/12/31 04:02:31;;;;;;;2.00;1.02;;;13.00;90.70;;;;;;9175220;19;19935;-69
2022/12/31 04:05:37;;;;;;;1.02;0.80;;;13.00;90.70;;;;;;9175029;19;20014;-68
2022/12/31 04:08:41;;;;;;;2.00;1.13;;;13.00;90.70;;;;;;9175738;19;20010;-70
2022/12/31 04:11:44;;;;;;;1.77;1.20;;;13.00;90.70;;;;;;9174252;19;20015;-70
2022/12/31 04:14:48;;;;;;;5.05;1.42;;;12.90;90.70;;;;;;9174614;19;20090;-69
2022/12/31 04:17:52;;;;;;;2.20;1.17;;;12.90;90.70;;;;;;9173486;19;20022;-70
2022/12/31 04:21:02;;;;;;;3.75;1.30;;;12.90;90.70;;;;;;9174095;19;20022;-69
2022/12/31 04:24:06;;;;;;;1.38;1.13;;;12.90;90.80;;;;;;9170663;19;20499;-69
2022/12/31 04:27:10;;;;;;;1.85;1.30;;;12.90;90.80;;;;;;9174240;19;20011;-69
2022/12/31 04:30:15;;;;;;;4.07;1.67;;;12.90;90.80;;;;;;9171832;19;20045;-70
2022/12/31 04:33:19;;;;;;;2.45;1.67;;;12.90;90.80;;;;;;9171791;19;20015;-69
2022/12/31 04:36:25;;;;;;;1.35;1.17;;;12.90;90.80;;;;;;9173543;19;20027;-70
2022/12/31 04:39:29;;;;;;;2.53;1.80;;;12.90;90.80;;;;;;9173221;19;20086;-67
2022/12/31 04:42:32;;;;;;;2.30;1.50;;;12.90;90.80;;;;;;9172874;19;20018;-70
2022/12/31 04:45:36;;;;;;;2.97;1.90;;;12.90;90.90;;;;;;9179627;19;20512;-70
2022/12/31 04:48:40;;;;;;;1.92;1.70;;;12.80;90.80;;;;;;9179185;19;20018;-70
2022/12/31 04:51:46;;;;;;;1.77;1.55;;;12.80;90.90;;;;;;9175775;19;20042;-71
2022/12/31 04:54:50;;;;;;;1.98;1.60;;;12.80;90.90;;;;;;9179207;19;20018;-70
2022/12/31 04:57:53;;;;;;;4.60;1.40;;;12.90;90.90;;;;;;9180607;19;20022;-68
2022/12/31 05:00:57;;;;;;;3.35;1.65;;;12.80;90.90;;;;;;9180510;19;20019;-71
2022/12/31 05:04:01;;;;;;;;;;;12.80;90.90;;;;;;9181443;19;20701;-68
2022/12/31 05:07:07;;;;;;;3.17;1.75;;;12.80;90.90;;;;;;9179116;19;20391;-69
2022/12/31 05:10:10;;;;;;;4.43;1.60;;;12.80;90.90;;;;;;9181411;19;20023;-68
2022/12/31 05:13:14;;;;;;;;;;;12.80;90.90;;;;;;9180795;19;20064;-69
2022/12/31 05:16:18;;;;;;;1.27;1.03;;;12.80;90.90;;;;;;9181098;19;19927;-70
2022/12/31 05:19:22;;;;;;;2.97;1.65;;;12.80;90.90;;;;;;9180398;19;20102;-70
2022/12/31 05:22:31;;;;;;;1.73;1.35;;;12.80;90.90;;;;;;9178415;19;20014;-71
2022/12/31 05:25:35;;;;;;;2.05;1.50;;;12.80;90.90;;;;;;9176956;19;20045;-69
2022/12/31 05:28:38;;;;;;;1.60;1.50;;;12.80;91.20;;;;;;9180364;19;20021;-70
2022/12/31 05:31:42;;;;;;;4.10;1.30;;;12.80;91.00;;;;;;9179902;19;20014;-70
2022/12/31 05:34:46;;;;;;;1.92;1.63;;;12.80;91.00;;;;;;9180650;19;20018;-70
2022/12/31 05:37:51;;;;;;;2.58;1.63;;;12.80;91.00;;;;;;9178626;19;20014;-70
2022/12/31 05:41:03;;;;;;;4.00;1.50;;;12.70;90.90;;;;;;9180516;19;20014;-70
2022/12/31 05:44:06;;;;;;;2.35;1.65;;;12.80;91.00;;;;;;9177029;19;20331;-70
2022/12/31 05:47:10;;;;;;;2.78;2.00;;;12.80;91.00;;;;;;9178211;19;20036;-68
2022/12/31 05:50:16;;;;;;;1.98;1.60;;;12.70;90.90;;;;;;9175279;19;20467;-69
2022/12/31 05:53:22;;;;;;;3.20;1.90;;;12.70;91.00;;;;;;9177853;19;20026;-69
2022/12/31 05:56:25;;;;;;;2.88;2.20;;;12.70;91.00;;;;;;9179909;19;20022;-70
2022/12/31 05:59:29;;;;;;;2.47;2.00;;;12.70;91.00;;;;;;9179736;19;20041;-69
2022/12/31 06:02:33;;;;;;;2.95;2.03;;;12.70;91.00;;;;;;9179737;19;20022;-70
2022/12/31 06:05:40;;;;;;;3.22;2.25;;;12.70;91.00;;;;;;9176016;19;20359;-70
2022/12/31 06:08:50;;;;;;;5.75;2.30;;;12.70;91.00;;;;;;9180233;19;20417;-70
2022/12/31 06:11:53;;;;;;;3.90;2.75;;;12.70;91.00;;;;;;9178805;19;20514;-70
2022/12/31 06:14:57;;;;;;;4.47;3.13;;;12.70;91.00;;;;;;9179603;19;20018;-70
2022/12/31 06:18:01;;;;;;;3.75;3.13;;;12.70;91.00;;;;;;9174071;19;20026;-70
2022/12/31 06:21:05;;;;;;;3.65;2.50;;;12.70;91.00;;;;;;9177294;19;20034;-70
2022/12/31 06:24:11;;;;;;;4.90;2.60;;;12.70;91.00;;;;;;9177380;19;20384;-70
2022/12/31 06:27:15;;;;;;;3.10;2.58;;;12.70;91.00;;;;;;9179890;19;20026;-70
2022/12/31 06:30:18;;;;;;;3.10;2.30;;;12.70;91.10;;;;;;9177411;19;20022;-70
2022/12/31 06:33:22;;;;;;;2.35;2.10;;;12.70;91.10;;;;;;9179206;19;20412;-69
2022/12/31 06:36:26;;;;;;;3.97;2.65;;;12.70;91.10;;;;;;9178392;19;20018;-69
2022/12/31 06:39:32;;;;;;;2.90;2.50;;;12.70;91.10;;;;;;9175662;19;20041;-70
2022/12/31 06:42:35;;;;;;;4.75;2.20;;;12.70;91.10;;;;;;9178174;19;20031;-70
2022/12/31 06:45:40;;;;;;;5.28;2.13;;;12.70;91.10;;;;;;9172277;19;20626;-70
2022/12/31 06:48:44;;;;;;;2.67;1.92;;;12.70;91.20;;;;;;9173491;19;20026;-69
2022/12/31 06:51:48;;;;;;;3.10;2.17;;;12.70;91.20;;;;;;9173754;19;20347;-70
2022/12/31 06:54:54;;;;;;;2.35;1.80;;;12.70;91.20;;;;;;9176043;19;20041;-70
2022/12/31 06:57:59;;;;;;;2.10;1.88;;;12.70;91.20;;;;;;9175324;19;20011;-70
2022/12/31 07:01:16;;;;;;;3.05;2.25;;;12.70;91.20;;;;;;9175449;19;20015;-70
2022/12/31 07:04:49;;;;;;;2.72;1.90;;;12.70;91.30;;;;;;9174590;19;20014;-69
2022/12/31 07:08:03;;;;;;;2.03;1.70;;;12.70;91.30;;;;;;9176097;19;20029;-69
2022/12/31 07:11:13;;;;;;;2.40;1.80;;;12.70;91.30;;;;;;9178285;19;20010;-71
2022/12/31 07:14:30;;;;;;;1.90;1.70;;;12.70;91.30;;;;;;9173485;19;20017;-70
2022/12/31 07:17:44;;;;;;;2.05;1.80;;;12.80;91.30;;;;;;9174364;19;20010;-70
2022/12/31 07:20:49;;;;;;;1.75;1.50;;;12.80;91.30;;;;;;9176215;19;20010;-70
2022/12/31 07:23:53;;;;;;;1.45;1.35;;;12.80;91.30;;;;;;9173560;19;20055;-70
2022/12/31 07:27:09;;;;;;;3.35;1.65;;;12.80;91.40;;;;;;9174671;19;20456;-71
2022/12/31 07:30:15;;;;;;;2.67;1.58;;;12.80;91.40;;;;;;9176216;19;20015;-70
2022/12/31 07:33:38;;;;;;;1.52;1.42;;;12.90;91.50;;;;;;9175616;19;20038;-70
2022/12/31 07:37:00;;;;;;;1.35;1.25;;;12.90;91.50;;;;;;9171290;19;20110;-68
2022/12/31 07:40:11;;;;;;;1.60;1.50;;;12.90;91.50;;;;;;9175748;19;20498;-70
2022/12/31 07:43:25;;;;;;;2.08;1.70;;;13.00;91.50;;;;;;9173181;19;20011;-70
2022/12/31 07:46:40;;;;;;;1.73;1.38;;;13.00;91.50;;;;;;9174324;19;20014;-71
2022/12/31 07:49:45;;;;;;;1.58;1.30;;;13.00;91.50;;;;;;9161238;19;20015;-69
2022/12/31 07:52:49;;;;;;;2.53;1.38;;;13.00;91.50;;;;;;9165696;19;20574;-69
2022/12/31 07:55:57;;;;;;;1.42;1.10;;;13.10;91.60;;;;;;9167737;19;20026;-69
2022/12/31 07:59:14;;;;;;;2.78;1.60;;;13.10;91.60;;;;;;9165168;19;20018;-70
2022/12/31 08:02:49;;;;;;;2.10;1.17;;;13.10;91.60;;;;;;9163509;19;20014;-70
2022/12/31 08:05:58;;;;;;;1.67;1.20;;;13.20;91.60;;;;;;9159321;19;20027;-69
2022/12/31 08:09:07;;;;;;;3.33;1.17;;;13.20;91.60;;;;;;9167213;19;20011;-72
2022/12/31 08:12:12;;;;;;;2.40;1.30;;;13.20;91.60;;;;;;9176077;19;20018;-72
2022/12/31 08:15:20;;;;;;;1.25;1.00;;;13.20;91.70;;;;;;9166983;19;20010;-72
2022/12/31 08:18:32;;;;;;;1.60;1.08;;;13.30;91.70;;;;;;9169253;19;20033;-71
2022/12/31 08:21:47;;;;;;;1.30;1.20;;;13.30;91.70;;;;;;9177184;19;20022;-72
2022/12/31 08:25:05;;;;;;;0.93;0.82;;;13.30;91.70;;;;;;9178530;19;20018;-72
2022/12/31 08:28:15;;;;;;;0.68;0.50;;;13.40;91.70;;;;;;9177856;19;20018;-72
2022/12/31 08:31:25;;;;;;;4.25;0.63;;;13.40;91.70;;;;;;9181153;19;20010;-72
2022/12/31 08:34:36;;;;;;;3.33;0.50;;;13.50;91.80;;;;;;9183302;19;20034;-73
2022/12/31 08:37:43;;;;;;;0.95;0.80;;;13.50;91.80;;;;;;9182867;19;20475;-73
2022/12/31 08:40:55;;;;;;;2.67;0.45;;;13.50;91.80;;;;;;9179772;19;20011;-73
2022/12/31 08:44:10;;;;;;;0.38;0.30;;;13.60;91.80;;;;;;9180879;19;20015;-72
2022/12/31 08:47:34;;;;;;;1.48;0.40;;;13.60;91.80;;;;;;9180616;19;20018;-73
2022/12/31 08:50:42;;;;;;;0.70;0.40;;;13.70;91.90;;;;;;9170882;19;20026;-72
2022/12/31 08:53:47;;;;;;;0.52;0.45;;;13.70;91.90;;;;;;9181992;19;20015;-72
2022/12/31 08:56:58;;;;;;;1.23;0.65;;;13.70;91.90;;;;;;9181751;19;20010;-73
2022/12/31 09:00:08;;;;;;;0.80;0.40;;;13.80;91.90;;;;;;9182363;19;20360;-73
2022/12/31 09:03:29;;;;;;;0.47;0.47;;;13.80;91.90;;;;;;9178437;19;20022;-72
2022/12/31 09:06:39;;;;;;;0.85;0.50;;;13.90;91.90;;;;;;9177001;19;20014;-72
2022/12/31 09:09:52;;;;;;;1.67;0.40;;;13.90;91.90;;;;;;9179783;19;20116;-72
2022/12/31 09:13:06;;;;;;;0.40;0.32;;;13.90;91.90;;;;;;9179870;19;20598;-72
2022/12/31 09:16:18;;;;;;;0.90;0.50;;;14.00;91.90;;;;;;9172578;19;20042;-72
2022/12/31 09:19:24;;;;;;;0.55;0.50;;;14.00;91.90;;;;;;9173805;19;20013;-71
2022/12/31 09:22:28;;;;;;;1.58;0.63;;;14.00;91.90;;;;;;9167505;19;20083;-73
2022/12/31 09:25:33;;;;;;;3.33;1.05;;;14.00;92.20;;;;;;9170070;19;20098;-72
2022/12/31 09:28:47;;;;;;;0.82;0.57;;;14.00;91.90;;;;;;9173065;19;20112;-72
2022/12/31 09:31:53;;;;;;;0.53;0.53;;;14.10;91.90;;;;;;9175451;19;20042;-74
2022/12/31 09:35:06;;;;;;;2.25;0.57;;;14.10;91.90;;;;;;9174762;19;20477;-74
2022/12/31 09:38:17;;;;;;;0.52;0.40;;;14.10;91.90;;;;;;9180198;19;20013;-72
2022/12/31 09:41:48;;;;;;;1.02;0.52;;;14.20;91.90;;;;;;9177814;19;20014;-73
2022/12/31 09:45:22;;;;;;;0.77;0.60;;;14.20;91.90;;;;;;9177692;19;20029;-72
2022/12/31 09:49:08;;;;;;;1.00;0.57;;;14.20;91.90;;;;;;9175978;19;20047;-73
2022/12/31 09:52:20;;;;;;;1.75;0.73;;;14.20;91.90;;;;;;9175199;19;20019;-73
2022/12/31 09:55:37;;;;;;;1.42;0.68;;;14.20;91.90;;;;;;9179363;19;20539;-72
2022/12/31 09:58:51;;;;;;;1.80;1.35;;;14.20;91.90;;;;;;9176000;19;20040;-72
2022/12/31 10:02:01;;;;;;;4.80;2.60;;;14.20;91.90;;;;;;9176295;19;20018;-73
2022/12/31 10:05:24;;;;;;;2.42;1.73;;;14.20;91.90;;;;;;9176737;19;20018;-73
2022/12/31 10:08:43;;;;;;;1.45;0.68;;;14.20;92.00;;;;;;9178448;19;20015;-72
2022/12/31 10:12:14;;;;;;;2.40;0.98;;;14.20;92.00;;;;;;9177533;19;20021;-73
2022/12/31 10:15:45;;;;;;;3.45;1.23;;;14.20;92.00;;;;;;9178520;19;20022;-72
2022/12/31 10:19:19;;;;;;;3.97;1.45;;;14.20;92.00;;;;;;9178098;19;20025;-73
2022/12/31 10:22:44;;;;;;;5.38;3.05;;;14.30;92.10;;;;;;9177429;19;20070;-74
2022/12/31 10:26:19;;;;;;;3.55;2.15;;;14.30;92.10;;;;;;9174281;19;20021;-73
2022/12/31 10:29:31;;;;;;;5.07;1.30;;;14.30;92.10;;;;;;9176128;19;20089;-74
2022/12/31 10:32:45;;;;;;;3.95;1.52;;;14.30;92.00;;;;;;9177403;19;20044;-73
2022/12/31 10:35:55;;;;;;;2.37;1.00;;;14.40;92.10;;;;;;9176661;19;20475;-72
2022/12/31 10:39:09;;;;;;;3.30;1.70;;;14.40;92.10;;;;;;9175964;19;20010;-74
2022/12/31 10:42:52;;;;;;;10.98;7.43;;;14.40;92.10;;;;;;9173818;19;20093;-73
2022/12/31 10:46:35;;;;;;;8.30;4.30;;;14.50;92.10;;;;;;9173438;19;20025;-74
2022/12/31 10:50:06;;;;;;;4.60;3.08;;;14.50;92.10;;;;;;9168730;19;20013;-74
2022/12/31 10:53:31;;;;;;;4.20;2.35;;;14.50;92.10;;;;;;9175473;19;20661;-74
2022/12/31 10:57:11;;;;;;;2.40;1.63;;;14.50;92.00;;;;;;9176614;19;20026;-73
2022/12/31 11:00:19;;;;;;;3.35;1.27;;;14.60;92.00;;;;;;9176076;19;20026;-74
2022/12/31 11:04:03;;;;;;;1.95;1.45;;;14.60;92.00;;;;;;9174718;19;20010;-74
2022/12/31 11:07:50;;;;;;;3.93;1.43;;;14.60;92.00;;;;;;9172571;19;20031;-72
2022/12/31 11:11:18;;;;;;;3.28;1.10;;;14.60;92.00;;;;;;9173452;19;20003;-74
2022/12/31 11:14:50;;;;;;;0.80;0.80;;;14.60;92.00;;;;;;9175708;19;20622;-74
2022/12/31 11:18:08;;;;;;;2.67;1.23;;;14.60;92.00;;;;;;9175036;19;20094;-73
2022/12/31 11:21:33;;;;;;;2.33;1.02;;;14.60;92.00;;;;;;9174941;19;20082;-74
2022/12/31 11:25:03;;;;;;;5.78;1.20;;;14.60;92.00;;;;;;9173139;19;20018;-74
2022/12/31 11:28:51;;;;;;;3.97;1.30;;;14.60;92.10;;;;;;9164622;19;20023;-74
2022/12/31 11:32:06;;;;;;;8.73;1.63;;;14.70;92.10;;;;;;9165809;19;20018;-72
2022/12/31 11:35:23;;;;;;;5.30;1.30;;;14.70;92.10;;;;;;9176377;19;20034;-74
2022/12/31 11:38:30;;;;;;;5.60;1.45;;;14.80;92.20;;;;;;9174496;19;20014;-74
2022/12/31 11:41:40;;;;;;;10.70;5.50;;;14.80;92.20;;;;;;9172842;19;20340;-73
2022/12/31 11:44:50;;;;;;;3.20;1.50;;;14.80;92.20;;;;;;9170023;19;20014;-73
2022/12/31 11:48:02;;;;;;;9.85;6.32;;;14.90;92.20;;;;;;9175101;19;20084;-74
2022/12/31 11:51:48;;;;;;;22.58;14.10;;;14.90;92.20;;;;;;9168991;19;20014;-71
2022/12/31 11:55:04;;;;;;;6.32;2.88;;;14.90;92.20;;;;;;9177914;19;20033;-73
2022/12/31 11:58:15;;;;;;;6.47;2.60;;;15.00;92.20;;;;;;9174335;19;20022;-72
2022/12/31 12:01:25;;;;;;;15.48;6.65;;;15.00;92.20;;;;;;9175529;19;20011;-73
2022/12/31 12:04:29;;;;;;;8.60;3.17;;;15.00;92.10;;;;;;9170206;19;20010;-73
2022/12/31 12:07:35;;;;;;;9.25;4.25;;;15.10;92.20;;;;;;9170699;19;20045;-72
2022/12/31 12:10:44;;;;;;;7.32;3.42;;;15.10;92.10;;;;;;9171182;19;20035;-74
2022/12/31 12:13:48;;;;;;;12.18;3.20;;;15.10;92.20;;;;;;9173981;19;20015;-72
2022/12/31 12:16:55;;;;;;;8.73;3.05;;;15.10;92.10;;;;;;9174290;19;20044;-73
2022/12/31 12:20:18;;;;;;;13.13;3.75;;;15.20;92.20;;;;;;9176585;19;20055;-73
2022/12/31 12:23:27;;;;;;;8.07;3.50;;;15.20;92.20;;;;;;9177981;19;20018;-73
2022/12/31 12:26:35;;;;;;;9.55;2.40;;;15.20;92.10;;;;;;9175753;19;20015;-73
2022/12/31 12:29:41;;;;;;;11.77;3.67;;;15.30;92.20;;;;;;9175200;19;20025;-73
2022/12/31 12:32:54;;;;;;;10.30;2.55;;;15.20;92.10;;;;;;9174278;19;20019;-72
2022/12/31 12:36:09;;;;;;;101.28;69.88;;;15.30;92.20;;;;;;9174723;19;20014;-73
2022/12/31 12:39:22;;;;;;;21.50;13.07;;;15.30;92.20;;;;;;9175791;19;20017;-74
2022/12/31 12:42:26;;;;;;;11.25;5.32;;;15.30;92.20;;;;;;9179286;19;20409;-74
2022/12/31 12:45:37;;;;;;;;;;;15.30;92.20;;;;;;9182957;19;20033;-73
2022/12/31 12:48:42;;;;;;;10.00;4.60;;;15.40;92.20;;;;;;9181764;19;19922;-74
2022/12/31 12:52:02;;;;;;;8.32;3.40;;;15.40;92.20;;;;;;9175367;19;20092;-73
2022/12/31 12:55:19;;;;;;;13.13;6.38;;;15.40;92.10;;;;;;9182770;19;20030;-74
2022/12/31 12:58:39;;;;;;;7.55;2.53;;;15.50;92.10;;;;;;9171888;19;20037;-72
2022/12/31 13:01:48;;;;;;;16.15;8.15;;;15.50;92.10;;;;;;9175845;19;20025;-74
2022/12/31 13:05:03;;;;;;;14.77;9.18;;;15.50;92.00;;;;;;9171748;19;20023;-73
2022/12/31 13:08:19;;;;;;;8.45;2.13;;;15.50;92.00;;;;;;9176084;19;20011;-73
2022/12/31 13:11:38;;;;;;;170.77;44.67;;;15.50;92.00;;;;;;9175943;19;20025;-74
2022/12/31 13:14:49;;;;;;;12.18;5.53;;;15.50;92.00;;;;;;9176596;19;20018;-73
2022/12/31 13:18:02;;;;;;;12.90;6.65;;;15.60;92.00;;;;;;9174257;19;20019;-74
2022/12/31 13:21:20;;;;;;;14.38;6.72;;;15.60;91.90;;;;;;9176241;19;20011;-74
2022/12/31 13:24:35;;;;;;;29.92;17.30;;;15.70;91.90;;;;;;9175286;19;20347;-73
2022/12/31 13:27:45;;;;;;;9.23;5.30;;;15.70;91.90;;;;;;9176074;19;20014;-72
2022/12/31 13:30:52;;;;;;;18.15;8.18;;;15.70;91.90;;;;;;9174026;19;20018;-73
2022/12/31 13:34:01;;;;;;;7.53;2.65;;;15.70;91.80;;;;;;9175010;19;20041;-74
2022/12/31 13:37:13;;;;;;;4.97;2.25;;;15.70;91.80;;;;;;9175893;19;20053;-74
2022/12/31 13:40:23;;;;;;;9.68;3.08;;;15.80;91.80;;;;;;9175529;19;20018;-74
2022/12/31 13:43:38;;;;;;;7.45;2.03;;;15.70;91.70;;;;;;9173561;19;20014;-73
2022/12/31 13:46:46;;;;;;;22.65;9.75;;;15.70;91.70;;;;;;9168079;19;20022;-73
2022/12/31 13:49:57;;;;;;;5.40;3.78;;;15.80;91.70;;;;;;9164189;19;20019;-74
2022/12/31 13:53:08;;;;;;;8.27;1.85;;;15.80;91.70;;;;;;9170552;19;20438;-73
2022/12/31 13:56:16;;;;;;;8.60;3.50;;;15.80;91.60;;;;;;9172503;19;20015;-73
2022/12/31 13:59:24;;;;;;;9.98;3.20;;;15.80;91.60;;;;;;9170907;19;20026;-70
2022/12/31 14:02:37;;;;;;;15.35;9.70;;;15.80;91.60;;;;;;9177338;19;20037;-73
2022/12/31 14:05:49;;;;;;;15.30;8.40;;;15.80;91.60;;;;;;9176363;19;20487;-74
2022/12/31 14:08:53;;;;;;;9.43;3.28;;;15.80;91.60;;;;;;9178660;19;20391;-75
2022/12/31 14:12:21;;;;;;;6.68;1.63;;;15.80;91.50;;;;;;9178034;19;20023;-73
2022/12/31 14:15:33;;;;;;;161.70;41.25;;;15.80;91.50;;;;;;9180931;19;20339;-73
2022/12/31 14:18:44;;;;;;;10.07;3.47;;;15.80;91.50;;;;;;9180247;19;20025;-73
2022/12/31 14:21:55;;;;;;;8.63;2.00;;;15.80;91.50;;;;;;9180143;19;20344;-73
2022/12/31 14:25:00;;;;;;;7.32;2.15;;;15.80;91.50;;;;;;9167064;19;20050;-74
2022/12/31 14:28:07;;;;;;;8.52;1.88;;;15.80;91.40;;;;;;9172394;19;20014;-73
2022/12/31 14:31:20;;;;;;;6.72;1.88;;;15.80;91.40;;;;;;9172677;19;20763;-73
2022/12/31 14:34:31;;;;;;;8.68;1.95;;;15.70;91.40;;;;;;9172679;19;20022;-72
2022/12/31 14:37:47;;;;;;;7.05;2.17;;;15.80;91.40;;;;;;9172882;19;20018;-74
2022/12/31 14:41:10;;;;;;;11.75;3.15;;;15.70;91.40;;;;;;9173214;19;20010;-72
2022/12/31 14:44:27;;;;;;;9.70;2.63;;;15.80;91.40;;;;;;9169790;19;20035;-74
2022/12/31 14:47:45;;;;;;;12.85;2.97;;;15.80;91.40;;;;;;9177816;19;20011;-72
2022/12/31 14:50:49;;;;;;;15.27;3.10;;;15.70;91.60;;;;;;9175684;19;20006;-73
2022/12/31 14:53:55;;;;;;;4.63;1.88;;;15.70;91.40;;;;;;9177857;19;20043;-74
2022/12/31 14:57:09;;;;;;;7.85;2.25;;;15.70;91.30;;;;;;9177038;19;20021;-75
2022/12/31 15:00:27;;;;;;;6.60;2.50;;;15.70;91.30;;;;;;9178995;19;20021;-72
2022/12/31 15:03:44;;;;;;;6.68;2.00;;;15.70;91.30;;;;;;9179314;19;20051;-75
2022/12/31 15:06:58;;;;;;;8.05;2.10;;;15.70;91.30;;;;;;9173886;19;20014;-74
2022/12/31 15:10:14;;;;;;;6.70;2.30;;;15.70;91.30;;;;;;9180082;19;20566;-74
2022/12/31 15:13:31;;;;;;;7.25;2.38;;;15.70;91.30;;;;;;9176442;19;20636;-74
2022/12/31 15:16:49;;;;;;;16.23;6.15;;;15.70;91.20;;;;;;9131751;19;20015;-75
2022/12/31 15:20:08;;;;;;;9.52;3.30;;;15.70;91.20;;;;;;9177031;19;20832;-74
2022/12/31 15:23:24;;;;;;;12.70;3.17;;;15.70;91.20;;;;;;9175508;19;20470;-74
2022/12/31 15:26:31;;;;;;;12.88;2.33;;;15.70;91.20;;;;;;9173746;19;20019;-73
2022/12/31 15:29:37;;;;;;;15.32;3.78;;;15.70;91.20;;;;;;9175468;19;20044;-75
2022/12/31 15:32:43;;;;;;;12.63;3.00;;;15.70;91.20;;;;;;9175898;19;20011;-74
2022/12/31 15:35:52;;;;;;;10.25;3.45;;;15.70;91.10;;;;;;9172031;19;20018;-75
2022/12/31 15:39:24;;;;;;;14.68;4.07;;;15.70;91.10;;;;;;9171347;19;20018;-74
2022/12/31 15:42:41;;;;;;;10.55;4.18;;;15.70;91.00;;;;;;9172442;19;20011;-74
2022/12/31 15:45:56;;;;;;;9.55;2.88;;;15.70;91.00;;;;;;9168355;19;20026;-74
2022/12/31 15:49:04;;;;;;;21.33;7.53;;;15.80;91.00;;;;;;9164948;19;20023;-73
2022/12/31 15:52:24;;;;;;;27.08;7.03;;;15.80;90.90;;;;;;9171783;19;20428;-74
2022/12/31 15:55:33;;;;;;;15.30;4.00;;;15.80;90.80;;;;;;9173670;19;20023;-75
2022/12/31 15:58:38;;;;;;;11.45;3.35;;;15.80;90.80;;;;;;9175325;19;20010;-74
2022/12/31 16:01:43;;;;;;;12.73;2.40;;;15.80;90.80;;;;;;9176273;19;20486;-75
2022/12/31 16:04:49;;;;;;;17.73;5.25;;;15.80;90.70;;;;;;9175466;19;20011;-74
2022/12/31 16:07:59;;;;;;;52.20;27.58;;;15.90;90.70;;;;;;9173828;19;20006;-75
2022/12/31 16:11:05;;;;;;;17.17;4.32;;;15.90;90.60;;;;;;9173632;19;20764;-75
2022/12/31 16:14:21;;;;;;;11.15;2.88;;;15.90;90.60;;;;;;9175452;19;20034;-74
2022/12/31 16:17:28;;;;;;;11.45;2.50;;;15.80;90.50;;;;;;9174441;19;20019;-75
2022/12/31 16:20:34;;;;;;;16.48;3.50;;;15.80;90.40;;;;;;9173912;19;20037;-75
2022/12/31 16:23:40;;;;;;;14.98;3.83;;;15.80;90.40;;;;;;9173077;19;20011;-75
2022/12/31 16:26:47;;;;;;;11.38;2.67;;;15.80;90.30;;;;;;9170542;19;20015;-73
2022/12/31 16:29:58;;;;;;;12.23;1.98;;;15.80;90.30;;;;;;9175025;19;20351;-75
2022/12/31 16:33:03;;;;;;;8.13;2.28;;;15.80;90.20;;;;;;9172829;19;20093;-75
2022/12/31 16:36:19;;;;;;;12.40;2.63;;;15.80;90.20;;;;;;9171767;19;20019;-74
2022/12/31 16:39:28;;;;;;;13.50;2.30;;;15.80;90.20;;;;;;9173530;19;20052;-74